Tocantinopolis, Brazil
Current Conditions -  °F | °C
As of 5:00 PM on Thursday 27 Nov 2014 (Local Time) from SBIZ Reporting Station
Few Clouds Few Clouds  
Wind Chill: 90°   Ceiling: Unl
Heat Index: 102°   Visibility: 6mi
Dew Point: 77°   Wind: 7mph
Humidity: 66%   Direction: 260°W
Pressure: 29.77"   Gusts: NA
Location:  6.32°S, 47.42°W
Report Text: SBIZ 272000Z 26006KT 9999 FEW032 32/25 Q1008
Loading
Personal Weather Stations






























Interactive Weather Map New forecast layout! Learn more

10-Day Weather Forecast

Advertisements
Track Severe Weather on mobile